• Join FlightAware (Why Join?)
  • Login
  • US Flag 
07:25AM EDT


 

Airport Tracker/Info


-or-


 

Live Flight TrackerFlight Track Log ✈ KYV8258 ✈ 24-Sep-2013 ✈ ZPJH / JHG - ZPPP / KMG

Flight Track Log - Related Links

Times and Time Zones

All times are in EDT time to prevent confusion due to time zone crossing. See the KYV8258 flight status page for this flight to view local times or setup timezone preferences in your user account.

Time Position Orientation Groundspeed Altitude Reporting Facility
EDT Latitude Longitude Course Direction KTS MPH feet Rate Location/Type
11:24AM 22.5313 101.1374 32° Northeast  Level Estimated
11:25AM 22.6010 101.1848 32° Northeast  Level Estimated
11:26AM 22.6706 101.2323 32° Northeast  Level Estimated
11:27AM 22.7402 101.2798 32° Northeast  Level Estimated
11:28AM 22.8097 101.3274 32° Northeast  Level Estimated
11:29AM 22.8793 101.3750 32° Northeast  Level Estimated
11:30AM 22.9488 101.4227 32° Northeast  Level Estimated
11:31AM 23.0184 101.4704 32° Northeast  Level Estimated
11:32AM 23.0879 101.5182 32° Northeast  Level Estimated
11:33AM 23.1574 101.5660 32° Northeast  Level Estimated
11:34AM 23.2269 101.6138 32° Northeast  Level Estimated
11:35AM 23.2963 101.6618 32° Northeast  Level Estimated
11:36AM 23.3658 101.7097 32° Northeast  Level Estimated
11:37AM 23.4352 101.7578 32° Northeast  Level Estimated
11:38AM 23.5047 101.8058 32° Northeast  Level Estimated
11:39AM 23.5741 101.8539 32° Northeast  Level Estimated
11:40AM 23.6435 101.9021 32° Northeast  Level Estimated
11:41AM 23.7129 101.9503 32° Northeast  Level Estimated
11:42AM 23.7822 101.9986 32° Northeast  Level Estimated
11:43AM 23.8516 102.0469 33° Northeast  Level Estimated
11:44AM 23.9209 102.0953 33° Northeast  Level Estimated
11:45AM 23.9902 102.1438 33° Northeast  Level Estimated
11:46AM 24.0596 102.1922 33° Northeast  Level Estimated
11:47AM 24.1289 102.2408 33° Northeast  Level Estimated
11:48AM 24.1981 102.2894 33° Northeast  Level Estimated
11:49AM 24.2674 102.3380 33° Northeast  Level Estimated
11:50AM 24.3366 102.3867 33° Northeast  Level Estimated
11:51AM 24.4059 102.4354 33° Northeast  Level Estimated
11:52AM 24.4751 102.4842 33° Northeast  Level Estimated
11:53AM 24.5443 102.5331 33° Northeast  Level Estimated
11:54AM 24.6135 102.5820 33° Northeast  Level Estimated
11:55AM 24.6826 102.6310 33° Northeast  Level Estimated
11:56AM 24.7518 102.6800 33° Northeast  Level Estimated
11:57AM 24.8209 102.7290 33° Northeast  Level Estimated
11:58AM 24.8901 102.7782 33° Northeast  Level Estimated
11:59AM 24.9592 102.8273 33° Northeast  Level Estimated
12:00PM 25.0283 102.8766 33° Northeast  Level Estimated
12:01PM 25.0973 102.9259 33° Northeast  Level Estimated
12:02PM 25.1019 102.9292 33° Northeast  Level Estimated
12:03PM 25.1019 102.9292 326° Northwest  Level Estimated
12:04PM 25.1019 102.9292 326° Northwest  Level Estimated